sensor_id;sensor_type;location;lat;lon;timestamp;pressure;altitude;pressure_sealevel;temperature;humidity
49689;BME280;70518;51.400;7.428;2024-03-02T00:01:42;157575.47;;;14.03;52.64
49689;BME280;70518;51.400;7.428;2024-03-02T00:04:07;157563.81;;;13.99;52.41
49689;BME280;70518;51.400;7.428;2024-03-02T00:06:33;157576.78;;;14.04;52.06
49689;BME280;70518;51.400;7.428;2024-03-02T00:08:58;157549.59;;;13.93;52.55
49689;BME280;70518;51.400;7.428;2024-03-02T00:11:24;157553.50;;;13.95;52.49
49689;BME280;70518;51.400;7.428;2024-03-02T00:13:51;157562.56;;;13.98;52.49
49689;BME280;70518;51.400;7.428;2024-03-02T00:16:17;157566.41;;;14.00;52.48
49689;BME280;70518;51.400;7.428;2024-03-02T00:18:43;157567.72;;;14.00;51.92
49689;BME280;70518;51.400;7.428;2024-03-02T00:21:09;157575.47;;;14.03;52.09
49689;BME280;70518;51.400;7.428;2024-03-02T00:23:34;157583.22;;;14.06;52.13
49689;BME280;70518;51.400;7.428;2024-03-02T00:26:00;157578.06;;;14.04;52.01
49689;BME280;70518;51.400;7.428;2024-03-02T00:28:35;157552.19;;;13.94;52.74
49689;BME280;70518;51.400;7.428;2024-03-02T00:31:07;157565.09;;;13.99;52.16
49689;BME280;70518;51.400;7.428;2024-03-02T00:33:34;157556.06;;;13.96;52.40
49689;BME280;70518;51.400;7.428;2024-03-02T00:36:01;157572.88;;;14.02;52.33
49689;BME280;70518;51.400;7.428;2024-03-02T00:38:26;157576.78;;;14.04;51.82
49689;BME280;70518;51.400;7.428;2024-03-02T00:40:52;157596.13;;;14.11;51.87
49689;BME280;70518;51.400;7.428;2024-03-02T00:45:48;157584.53;;;14.07;51.90
49689;BME280;70518;51.400;7.428;2024-03-02T00:48:15;157575.47;;;14.03;51.84
49689;BME280;70518;51.400;7.428;2024-03-02T00:50:40;157580.63;;;14.05;51.74
49689;BME280;70518;51.400;7.428;2024-03-02T00:53:08;157589.69;;;14.09;51.73
49689;BME280;70518;51.400;7.428;2024-03-02T00:55:36;157584.53;;;14.07;51.60
49689;BME280;70518;51.400;7.428;2024-03-02T00:58:04;157574.16;;;14.03;51.96
49689;BME280;70518;51.400;7.428;2024-03-02T01:00:29;157571.56;;;14.02;51.95
49689;BME280;70518;51.400;7.428;2024-03-02T01:02:54;157561.25;;;13.98;52.16
49689;BME280;70518;51.400;7.428;2024-03-02T01:05:19;157562.56;;;13.98;52.03
49689;BME280;70518;51.400;7.428;2024-03-02T01:07:45;157562.56;;;13.98;52.12
49689;BME280;70518;51.400;7.428;2024-03-02T01:10:10;157570.31;;;14.01;51.91
49689;BME280;70518;51.400;7.428;2024-03-02T01:12:35;157556.06;;;13.96;52.11
49689;BME280;70518;51.400;7.428;2024-03-02T01:15:01;157549.59;;;13.93;52.29
49689;BME280;70518;51.400;7.428;2024-03-02T01:17:26;157558.66;;;13.97;52.18
49689;BME280;70518;51.400;7.428;2024-03-02T01:19:51;157525.06;;;13.83;52.43
49689;BME280;70518;51.400;7.428;2024-03-02T01:22:16;157532.84;;;13.86;52.51
49689;BME280;70518;51.400;7.428;2024-03-02T01:24:45;157527.63;;;13.84;52.24
49689;BME280;70518;51.400;7.428;2024-03-02T01:27:10;157501.81;;;13.74;52.86
49689;BME280;70518;51.400;7.428;2024-03-02T01:29:35;157499.22;;;13.73;52.88
49689;BME280;70518;51.400;7.428;2024-03-02T01:32:00;157496.59;;;13.72;52.75
49689;BME280;70518;51.400;7.428;2024-03-02T01:34:26;157503.06;;;13.75;52.64
49689;BME280;70518;51.400;7.428;2024-03-02T01:36:51;157503.06;;;13.75;52.49
49689;BME280;70518;51.400;7.428;2024-03-02T01:39:16;157491.44;;;13.70;52.68
49689;BME280;70518;51.400;7.428;2024-03-02T01:41:41;157483.69;;;13.67;52.80
49689;BME280;70518;51.400;7.428;2024-03-02T01:44:07;157503.06;;;13.75;52.81
49689;BME280;70518;51.400;7.428;2024-03-02T01:46:32;157481.09;;;13.66;52.83
49689;BME280;70518;51.400;7.428;2024-03-02T01:48:57;157500.50;;;13.74;52.77
49689;BME280;70518;51.400;7.428;2024-03-02T01:51:22;157499.22;;;13.73;52.52
49689;BME280;70518;51.400;7.428;2024-03-02T01:53:47;157499.22;;;13.73;52.43
49689;BME280;70518;51.400;7.428;2024-03-02T01:56:12;157487.59;;;13.69;52.42
49689;BME280;70518;51.400;7.428;2024-03-02T01:58:38;157482.41;;;13.67;52.21
49689;BME280;70518;51.400;7.428;2024-03-02T02:01:03;157478.53;;;13.65;52.42
49689;BME280;70518;51.400;7.428;2024-03-02T02:03:28;157464.34;;;13.60;52.51
49689;BME280;70518;51.400;7.428;2024-03-02T02:05:53;157450.06;;;13.54;52.50
49689;BME280;70518;51.400;7.428;2024-03-02T02:08:18;157447.53;;;13.53;52.46
49689;BME280;70518;51.400;7.428;2024-03-02T02:10:44;157455.28;;;13.56;52.52
49689;BME280;70518;51.400;7.428;2024-03-02T02:13:09;157468.19;;;13.61;52.32
49689;BME280;70518;51.400;7.428;2024-03-02T02:15:34;157470.78;;;13.62;52.26
49689;BME280;70518;51.400;7.428;2024-03-02T02:18:01;157455.28;;;13.56;52.54
49689;BME280;70518;51.400;7.428;2024-03-02T02:20:26;157472.09;;;13.63;51.84
49689;BME280;70518;51.400;7.428;2024-03-02T02:23:01;157468.19;;;13.61;51.93
49689;BME280;70518;51.400;7.428;2024-03-02T02:25:27;157412.59;;;13.40;52.78
49689;BME280;70518;51.400;7.428;2024-03-02T02:27:53;157393.25;;;13.32;53.15
49689;BME280;70518;51.400;7.428;2024-03-02T02:30:19;157394.56;;;13.32;53.06
49689;BME280;70518;51.400;7.428;2024-03-02T02:32:45;157394.56;;;13.32;53.01
49689;BME280;70518;51.400;7.428;2024-03-02T02:35:10;157399.69;;;13.34;53.04
49689;BME280;70518;51.400;7.428;2024-03-02T02:37:35;157408.75;;;13.38;52.81
49689;BME280;70518;51.400;7.428;2024-03-02T02:40:00;157398.41;;;13.34;52.93
49689;BME280;70518;51.400;7.428;2024-03-02T02:42:26;157386.81;;;13.29;53.25
49689;BME280;70518;51.400;7.428;2024-03-02T02:44:51;157388.09;;;13.30;53.09
49689;BME280;70518;51.400;7.428;2024-03-02T02:47:16;157398.41;;;13.34;53.00
49689;BME280;70518;51.400;7.428;2024-03-02T02:49:41;157395.84;;;13.33;52.94
49689;BME280;70518;51.400;7.428;2024-03-02T02:52:07;157393.25;;;13.32;53.04
49689;BME280;70518;51.400;7.428;2024-03-02T02:54:32;157395.84;;;13.33;52.90
49689;BME280;70518;51.400;7.428;2024-03-02T02:56:57;157411.38;;;13.39;52.78
49689;BME280;70518;51.400;7.428;2024-03-02T02:59:22;157404.84;;;13.36;52.69
49689;BME280;70518;51.400;7.428;2024-03-02T03:01:47;157406.16;;;13.37;52.66
49689;BME280;70518;51.400;7.428;2024-03-02T03:04:12;157407.47;;;13.38;52.62
49689;BME280;70518;51.400;7.428;2024-03-02T03:06:38;157404.84;;;13.36;52.64
49689;BME280;70518;51.400;7.428;2024-03-02T03:09:03;157398.41;;;13.34;52.78
49689;BME280;70518;51.400;7.428;2024-03-02T03:11:28;157408.75;;;13.38;52.71
49689;BME280;70518;51.400;7.428;2024-03-02T03:13:53;157410.06;;;13.39;52.63
49689;BME280;70518;51.400;7.428;2024-03-02T03:16:19;157410.06;;;13.39;52.65
49689;BME280;70518;51.400;7.428;2024-03-02T03:18:44;157421.66;;;13.43;52.48
49689;BME280;70518;51.400;7.428;2024-03-02T03:21:10;157424.25;;;13.44;52.27
49689;BME280;70518;51.400;7.428;2024-03-02T03:23:35;157399.69;;;13.34;52.61
49689;BME280;70518;51.400;7.428;2024-03-02T03:26:00;157403.59;;;13.36;52.71
49689;BME280;70518;51.400;7.428;2024-03-02T03:28:25;157413.91;;;13.40;52.52
49689;BME280;70518;51.400;7.428;2024-03-02T03:30:51;157417.81;;;13.42;52.46
49689;BME280;70518;51.400;7.428;2024-03-02T03:33:16;157416.50;;;13.41;52.40
49689;BME280;70518;51.400;7.428;2024-03-02T03:35:41;157430.72;;;13.47;52.33
49689;BME280;70518;51.400;7.428;2024-03-02T03:38:06;157429.41;;;13.46;52.19
49689;BME280;70518;51.400;7.428;2024-03-02T03:40:31;157437.16;;;13.49;52.04
49689;BME280;70518;51.400;7.428;2024-03-02T03:42:57;157421.66;;;13.43;52.32
49689;BME280;70518;51.400;7.428;2024-03-02T03:45:22;157430.72;;;13.47;52.20
49689;BME280;70518;51.400;7.428;2024-03-02T03:47:47;157433.31;;;13.48;52.15
49689;BME280;70518;51.400;7.428;2024-03-02T03:50:13;157420.38;;;13.43;52.37
49689;BME280;70518;51.400;7.428;2024-03-02T03:52:38;157422.97;;;13.44;52.36
49689;BME280;70518;51.400;7.428;2024-03-02T03:55:03;157419.09;;;13.42;52.23
49689;BME280;70518;51.400;7.428;2024-03-02T03:57:30;157419.09;;;13.42;52.40
49689;BME280;70518;51.400;7.428;2024-03-02T03:59:55;157421.66;;;13.43;52.42
49689;BME280;70518;51.400;7.428;2024-03-02T04:02:20;157410.06;;;13.39;52.26
49689;BME280;70518;51.400;7.428;2024-03-02T04:04:45;157426.81;;;13.45;52.42
49689;BME280;70518;51.400;7.428;2024-03-02T04:07:11;157429.41;;;13.46;52.32
49689;BME280;70518;51.400;7.428;2024-03-02T04:09:36;157424.25;;;13.44;52.54
49689;BME280;70518;51.400;7.428;2024-03-02T04:12:01;157426.81;;;13.45;52.42
49689;BME280;70518;51.400;7.428;2024-03-02T04:14:26;157447.53;;;13.53;52.31
49689;BME280;70518;51.400;7.428;2024-03-02T04:16:52;157455.28;;;13.56;52.05
49689;BME280;70518;51.400;7.428;2024-03-02T04:19:17;157466.88;;;13.61;52.03
49689;BME280;70518;51.400;7.428;2024-03-02T04:21:42;157461.75;;;13.59;52.12
49689;BME280;70518;51.400;7.428;2024-03-02T04:24:07;157460.44;;;13.58;52.09
49689;BME280;70518;51.400;7.428;2024-03-02T04:26:33;157473.34;;;13.63;51.87
49689;BME280;70518;51.400;7.428;2024-03-02T04:28:58;157472.09;;;13.63;52.22
49689;BME280;70518;51.400;7.428;2024-03-02T04:31:23;157466.88;;;13.61;52.48
49689;BME280;70518;51.400;7.428;2024-03-02T04:33:48;157474.66;;;13.64;52.14
49689;BME280;70518;51.400;7.428;2024-03-02T04:36:14;157468.19;;;13.61;52.23
49689;BME280;70518;51.400;7.428;2024-03-02T04:38:39;157481.09;;;13.66;52.28
49689;BME280;70518;51.400;7.428;2024-03-02T04:41:04;157479.84;;;13.66;52.29
49689;BME280;70518;51.400;7.428;2024-03-02T04:43:31;157479.84;;;13.66;52.28
49689;BME280;70518;51.400;7.428;2024-03-02T04:45:56;157508.25;;;13.77;52.06
49689;BME280;70518;51.400;7.428;2024-03-02T04:48:22;157503.06;;;13.75;52.32
49689;BME280;70518;51.400;7.428;2024-03-02T04:50:47;157510.81;;;13.78;52.23
49689;BME280;70518;51.400;7.428;2024-03-02T04:53:12;157505.66;;;13.76;52.38
49689;BME280;70518;51.400;7.428;2024-03-02T04:55:37;157519.88;;;13.81;52.12
49689;BME280;70518;51.400;7.428;2024-03-02T04:58:05;157526.34;;;13.84;52.06
49689;BME280;70518;51.400;7.428;2024-03-02T05:00:31;157545.75;;;13.91;51.84
49689;BME280;70518;51.400;7.428;2024-03-02T05:02:56;157521.19;;;13.82;52.01
49689;BME280;70518;51.400;7.428;2024-03-02T05:05:21;157525.06;;;13.83;51.81
49689;BME280;70518;51.400;7.428;2024-03-02T05:07:47;157528.94;;;13.85;51.66
49689;BME280;70518;51.400;7.428;2024-03-02T05:10:12;157538.00;;;13.88;51.74
49689;BME280;70518;51.400;7.428;2024-03-02T05:12:37;157536.69;;;13.88;51.61
49689;BME280;70518;51.400;7.428;2024-03-02T05:15:09;157531.53;;;13.86;51.58
49689;BME280;70518;51.400;7.428;2024-03-02T05:17:35;157538.00;;;13.88;51.48
49689;BME280;70518;51.400;7.428;2024-03-02T05:20:00;157538.00;;;13.88;51.47
49689;BME280;70518;51.400;7.428;2024-03-02T05:22:26;157530.22;;;13.85;51.67
49689;BME280;70518;51.400;7.428;2024-03-02T05:24:51;157535.38;;;13.87;51.54
49689;BME280;70518;51.400;7.428;2024-03-02T05:27:16;157530.22;;;13.85;51.55
49689;BME280;70518;51.400;7.428;2024-03-02T05:29:41;157527.63;;;13.84;51.62
49689;BME280;70518;51.400;7.428;2024-03-02T05:32:07;157516.03;;;13.80;51.79
49689;BME280;70518;51.400;7.428;2024-03-02T05:34:32;157517.31;;;13.80;51.75
49689;BME280;70518;51.400;7.428;2024-03-02T05:36:59;157499.22;;;13.73;51.87
49689;BME280;70518;51.400;7.428;2024-03-02T05:39:24;157508.25;;;13.77;51.71
49689;BME280;70518;51.400;7.428;2024-03-02T05:41:50;157496.59;;;13.72;52.00
49689;BME280;70518;51.400;7.428;2024-03-02T05:44:15;157503.06;;;13.75;51.80
49689;BME280;70518;51.400;7.428;2024-03-02T05:46:40;157501.81;;;13.74;51.79
49689;BME280;70518;51.400;7.428;2024-03-02T05:49:06;157495.31;;;13.72;51.94
49689;BME280;70518;51.400;7.428;2024-03-02T05:51:34;157485.00;;;13.68;51.88
49689;BME280;70518;51.400;7.428;2024-03-02T05:53:59;157486.31;;;13.68;52.11
49689;BME280;70518;51.400;7.428;2024-03-02T05:56:25;157494.06;;;13.71;52.00
49689;BME280;70518;51.400;7.428;2024-03-02T05:58:50;157483.69;;;13.67;52.01
49689;BME280;70518;51.400;7.428;2024-03-02T06:01:32;157479.84;;;13.66;51.96
49689;BME280;70518;51.400;7.428;2024-03-02T06:03:58;157470.78;;;13.62;52.22
49689;BME280;70518;51.400;7.428;2024-03-02T06:06:23;157485.00;;;13.68;51.98
49689;BME280;70518;51.400;7.428;2024-03-02T06:08:49;157492.75;;;13.71;51.79
49689;BME280;70518;51.400;7.428;2024-03-02T06:11:14;157472.09;;;13.63;52.11
49689;BME280;70518;51.400;7.428;2024-03-02T06:13:39;157444.94;;;13.52;52.53
49689;BME280;70518;51.400;7.428;2024-03-02T06:16:05;157441.06;;;13.51;52.56
49689;BME280;70518;51.400;7.428;2024-03-02T06:18:30;157437.16;;;13.49;52.53
49689;BME280;70518;51.400;7.428;2024-03-02T06:20:55;157441.06;;;13.51;52.39
49689;BME280;70518;51.400;7.428;2024-03-02T06:23:20;157438.47;;;13.50;52.67
49689;BME280;70518;51.400;7.428;2024-03-02T06:25:46;157433.31;;;13.48;52.61
49689;BME280;70518;51.400;7.428;2024-03-02T06:28:11;157424.25;;;13.44;52.58
49689;BME280;70518;51.400;7.428;2024-03-02T06:30:36;157428.13;;;13.46;53.06
49689;BME280;70518;51.400;7.428;2024-03-02T06:33:01;157439.78;;;13.50;52.65
49689;BME280;70518;51.400;7.428;2024-03-02T06:35:28;157447.53;;;13.53;52.29
49689;BME280;70518;51.400;7.428;2024-03-02T06:37:53;157442.31;;;13.51;52.58
49689;BME280;70518;51.400;7.428;2024-03-02T06:40:19;157452.69;;;13.55;52.55
49689;BME280;70518;51.400;7.428;2024-03-02T06:42:44;157460.44;;;13.58;52.51
49689;BME280;70518;51.400;7.428;2024-03-02T06:45:09;157461.75;;;13.59;52.37
49689;BME280;70518;51.400;7.428;2024-03-02T06:47:34;157451.38;;;13.55;52.57
49689;BME280;70518;51.400;7.428;2024-03-02T06:50:00;157464.34;;;13.60;52.30
49689;BME280;70518;51.400;7.428;2024-03-02T06:52:25;157466.88;;;13.61;52.51
49689;BME280;70518;51.400;7.428;2024-03-02T06:54:50;157460.44;;;13.58;52.64
49689;BME280;70518;51.400;7.428;2024-03-02T06:57:15;157466.88;;;13.61;52.47
49689;BME280;70518;51.400;7.428;2024-03-02T06:59:42;157475.94;;;13.64;52.37
49689;BME280;70518;51.400;7.428;2024-03-02T07:02:07;157482.41;;;13.67;52.22
49689;BME280;70518;51.400;7.428;2024-03-02T07:04:33;157490.16;;;13.70;52.22
49689;BME280;70518;51.400;7.428;2024-03-02T07:06:59;157479.84;;;13.66;52.40
49689;BME280;70518;51.400;7.428;2024-03-02T07:09:24;157488.84;;;13.69;52.31
49689;BME280;70518;51.400;7.428;2024-03-02T07:11:49;157503.06;;;13.75;52.10
49689;BME280;70518;51.400;7.428;2024-03-02T07:14:14;157485.00;;;13.68;52.68
49689;BME280;70518;51.400;7.428;2024-03-02T07:16:40;157477.25;;;13.65;52.90
49689;BME280;70518;51.400;7.428;2024-03-02T07:19:05;157477.25;;;13.65;52.96
49689;BME280;70518;51.400;7.428;2024-03-02T07:21:31;157483.69;;;13.67;53.25
49689;BME280;70518;51.400;7.428;2024-03-02T07:23:57;157509.56;;;13.77;52.65
49689;BME280;70518;51.400;7.428;2024-03-02T07:26:22;157508.25;;;13.77;52.87
49689;BME280;70518;51.400;7.428;2024-03-02T07:28:48;157475.94;;;13.64;53.60
49689;BME280;70518;51.400;7.428;2024-03-02T07:31:14;157494.06;;;13.71;53.21
49689;BME280;70518;51.400;7.428;2024-03-02T07:33:39;157481.09;;;13.66;53.31
49689;BME280;70518;51.400;7.428;2024-03-02T07:36:04;157506.97;;;13.76;53.19
49689;BME280;70518;51.400;7.428;2024-03-02T07:38:29;157509.56;;;13.77;53.30
49689;BME280;70518;51.400;7.428;2024-03-02T07:40:55;157522.47;;;13.82;52.95
49689;BME280;70518;51.400;7.428;2024-03-02T07:43:20;157517.31;;;13.80;53.19
49689;BME280;70518;51.400;7.428;2024-03-02T07:45:46;157512.13;;;13.78;53.36
49689;BME280;70518;51.400;7.428;2024-03-02T07:48:11;157532.84;;;13.86;53.20
49689;BME280;70518;51.400;7.428;2024-03-02T07:50:37;157554.81;;;13.95;52.93
49689;BME280;70518;51.400;7.428;2024-03-02T07:53:03;157557.34;;;13.96;53.05
49689;BME280;70518;51.400;7.428;2024-03-02T07:55:29;157563.81;;;13.99;52.93
49689;BME280;70518;51.400;7.428;2024-03-02T07:57:55;157569.00;;;14.01;53.04
49689;BME280;70518;51.400;7.428;2024-03-02T08:00:20;157581.94;;;14.06;52.99
49689;BME280;70518;51.400;7.428;2024-03-02T08:02:45;157598.75;;;14.12;52.94
49689;BME280;70518;51.400;7.428;2024-03-02T08:05:11;157602.59;;;14.14;52.83
49689;BME280;70518;51.400;7.428;2024-03-02T08:07:36;157618.09;;;14.20;52.75
49689;BME280;70518;51.400;7.428;2024-03-02T08:10:01;157638.81;;;14.28;52.93
49689;BME280;70518;51.400;7.428;2024-03-02T08:12:26;157645.28;;;14.30;52.76
49689;BME280;70518;51.400;7.428;2024-03-02T08:14:51;157643.97;;;14.30;52.47
49689;BME280;70518;51.400;7.428;2024-03-02T08:17:17;157654.41;;;14.34;52.60
49689;BME280;70518;51.400;7.428;2024-03-02T08:19:42;157655.66;;;14.34;52.60
49689;BME280;70518;51.400;7.428;2024-03-02T08:22:07;157682.81;;;14.45;52.50
49689;BME280;70518;51.400;7.428;2024-03-02T08:24:33;157687.97;;;14.47;52.21
49689;BME280;70518;51.400;7.428;2024-03-02T08:26:59;157698.34;;;14.51;51.96
49689;BME280;70518;51.400;7.428;2024-03-02T08:29:24;157695.75;;;14.50;51.95
49689;BME280;70518;51.400;7.428;2024-03-02T08:31:50;157702.19;;;14.53;51.92
49689;BME280;70518;51.400;7.428;2024-03-02T08:34:15;157719.03;;;14.59;51.75
49689;BME280;70518;51.400;7.428;2024-03-02T08:36:40;157721.63;;;14.60;51.27
49689;BME280;70518;51.400;7.428;2024-03-02T08:39:06;157747.47;;;14.70;51.33
49689;BME280;70518;51.400;7.428;2024-03-02T08:41:40;157752.66;;;14.72;51.29
49689;BME280;70518;51.400;7.428;2024-03-02T08:44:05;157764.28;;;14.77;51.50
49689;BME280;70518;51.400;7.428;2024-03-02T08:46:31;157770.75;;;14.79;51.39
49689;BME280;70518;51.400;7.428;2024-03-02T08:48:56;157799.22;;;14.90;51.50
49689;BME280;70518;51.400;7.428;2024-03-02T08:51:21;157841.88;;;15.07;50.85
49689;BME280;70518;51.400;7.428;2024-03-02T08:53:47;157861.28;;;15.15;50.74
49689;BME280;70518;51.400;7.428;2024-03-02T08:56:12;157860.03;;;15.14;50.76
49689;BME280;70518;51.400;7.428;2024-03-02T08:58:38;157860.03;;;15.14;50.67
49689;BME280;70518;51.400;7.428;2024-03-02T09:01:03;157850.97;;;15.11;51.11
49689;BME280;70518;51.400;7.428;2024-03-02T09:03:28;157863.88;;;15.16;50.82
49689;BME280;70518;51.400;7.428;2024-03-02T09:05:53;157888.47;;;15.25;50.31
49689;BME280;70518;51.400;7.428;2024-03-02T09:08:19;157888.47;;;15.25;50.36
49689;BME280;70518;51.400;7.428;2024-03-02T09:10:44;157916.91;;;15.36;50.37
49689;BME280;70518;51.400;7.428;2024-03-02T09:13:09;157914.31;;;15.35;50.26
49689;BME280;70518;51.400;7.428;2024-03-02T09:15:34;157933.75;;;15.43;49.87
49689;BME280;70518;51.400;7.428;2024-03-02T09:18:02;157945.41;;;15.47;50.01
49689;BME280;70518;51.400;7.428;2024-03-02T09:20:27;157951.94;;;15.50;49.98
49689;BME280;70518;51.400;7.428;2024-03-02T09:22:53;157967.41;;;15.56;49.75
49689;BME280;70518;51.400;7.428;2024-03-02T09:25:18;157988.16;;;15.64;49.89
49689;BME280;70518;51.400;7.428;2024-03-02T09:27:43;157990.69;;;15.65;49.60
49689;BME280;70518;51.400;7.428;2024-03-02T09:30:08;157985.53;;;15.63;49.67
49689;BME280;70518;51.400;7.428;2024-03-02T09:32:35;157992.00;;;15.66;49.48
49689;BME280;70518;51.400;7.428;2024-03-02T09:35:00;158016.59;;;15.75;49.84
49689;BME280;70518;51.400;7.428;2024-03-02T09:37:25;158024.38;;;15.78;49.78
49689;BME280;70518;51.400;7.428;2024-03-02T09:39:51;158037.28;;;15.83;49.77
49689;BME280;70518;51.400;7.428;2024-03-02T09:42:17;158065.81;;;15.94;49.20
49689;BME280;70518;51.400;7.428;2024-03-02T09:44:42;158091.66;;;16.04;49.41
49689;BME280;70518;51.400;7.428;2024-03-02T09:47:08;158099.41;;;16.07;49.18
49689;BME280;70518;51.400;7.428;2024-03-02T09:49:34;158099.41;;;16.07;48.18
49689;BME280;70518;51.400;7.428;2024-03-02T09:51:59;158120.13;;;16.16;48.77
49689;BME280;70518;51.400;7.428;2024-03-02T09:54:25;158136.94;;;16.22;48.41
49689;BME280;70518;51.400;7.428;2024-03-02T09:56:50;158144.72;;;16.25;48.45
49689;BME280;70518;51.400;7.428;2024-03-02T09:59:16;158161.56;;;16.32;48.53
49689;BME280;70518;51.400;7.428;2024-03-02T10:01:59;158177.09;;;16.38;48.15
49689;BME280;70518;51.400;7.428;2024-03-02T10:04:25;158203.00;;;16.48;47.84
49689;BME280;70518;51.400;7.428;2024-03-02T10:06:50;158205.56;;;16.49;47.39
49689;BME280;70518;51.400;7.428;2024-03-02T10:09:26;158210.78;;;16.51;47.39
49689;BME280;70518;51.400;7.428;2024-03-02T10:11:51;158238.00;;;16.61;47.68
49689;BME280;70518;51.400;7.428;2024-03-02T10:14:17;158258.69;;;16.70;47.58
49689;BME280;70518;51.400;7.428;2024-03-02T10:16:43;158240.59;;;16.62;47.37
49689;BME280;70518;51.400;7.428;2024-03-02T10:19:15;158292.38;;;16.83;46.56
49689;BME280;70518;51.400;7.428;2024-03-02T10:21:42;158263.91;;;16.72;46.94
49689;BME280;70518;51.400;7.428;2024-03-02T10:24:07;158274.25;;;16.76;47.21
49689;BME280;70518;51.400;7.428;2024-03-02T10:26:32;158291.09;;;16.82;47.17
49689;BME280;70518;51.400;7.428;2024-03-02T10:28:57;158318.25;;;16.93;47.27
49689;BME280;70518;51.400;7.428;2024-03-02T10:31:24;158341.56;;;17.02;46.71
49689;BME280;70518;51.400;7.428;2024-03-02T10:33:52;158363.59;;;17.10;46.09
49689;BME280;70518;51.400;7.428;2024-03-02T10:36:18;158366.19;;;17.11;46.29
49689;BME280;70518;51.400;7.428;2024-03-02T10:38:43;158389.50;;;17.20;45.77
49689;BME280;70518;51.400;7.428;2024-03-02T10:41:09;158389.50;;;17.20;45.71
49689;BME280;70518;51.400;7.428;2024-03-02T10:43:34;158397.28;;;17.23;45.01
49689;BME280;70518;51.400;7.428;2024-03-02T10:45:59;158385.66;;;17.19;45.00
49689;BME280;70518;51.400;7.428;2024-03-02T10:48:25;158380.44;;;17.17;44.93
49689;BME280;70518;51.400;7.428;2024-03-02T10:50:51;158377.88;;;17.16;44.97
49689;BME280;70518;51.400;7.428;2024-03-02T10:53:18;158381.72;;;17.17;45.54
49689;BME280;70518;51.400;7.428;2024-03-02T10:55:43;158407.66;;;17.28;45.12
49689;BME280;70518;51.400;7.428;2024-03-02T10:58:08;158442.63;;;17.41;44.71
49689;BME280;70518;51.400;7.428;2024-03-02T11:00:37;158454.31;;;17.46;44.11
49689;BME280;70518;51.400;7.428;2024-03-02T11:05:29;158480.22;;;17.56;44.47
49689;BME280;70518;51.400;7.428;2024-03-02T11:08:02;158504.84;;;17.65;44.04
49689;BME280;70518;51.400;7.428;2024-03-02T11:13:31;158541.13;;;17.80;43.28
49689;BME280;70518;51.400;7.428;2024-03-02T11:16:01;158586.47;;;17.97;50.77
49689;BME280;70518;51.400;7.428;2024-03-02T11:18:27;158662.94;;;18.27;54.25
49689;BME280;70518;51.400;7.428;2024-03-02T11:20:53;158766.72;;;18.67;54.55
49689;BME280;70518;51.400;7.428;2024-03-02T11:23:19;158832.81;;;18.93;54.82
49689;BME280;70518;51.400;7.428;2024-03-02T11:26:04;158909.31;;;19.23;55.27
49689;BME280;70518;51.400;7.428;2024-03-02T11:28:41;158975.50;;;19.49;54.92
49689;BME280;70518;51.400;7.428;2024-03-02T11:31:06;159049.47;;;19.77;56.95
49689;BME280;70518;51.400;7.428;2024-03-02T11:33:31;159075.38;;;19.87;54.03
49689;BME280;70518;51.400;7.428;2024-03-02T11:35:56;159098.75;;;19.96;50.96
49689;BME280;70518;51.400;7.428;2024-03-02T11:38:22;159159.72;;;20.20;50.92
49689;BME280;70518;51.400;7.428;2024-03-02T11:40:47;159158.44;;;20.20;45.94
49689;BME280;70518;51.400;7.428;2024-03-02T11:43:12;159149.31;;;20.16;45.68
49689;BME280;70518;51.400;7.428;2024-03-02T11:45:38;159161.03;;;20.21;45.27
49689;BME280;70518;51.400;7.428;2024-03-02T11:48:09;159179.28;;;20.28;46.09
49689;BME280;70518;51.400;7.428;2024-03-02T11:50:47;159180.53;;;20.28;45.60
49689;BME280;70518;51.400;7.428;2024-03-02T11:53:13;159193.53;;;20.33;44.48
49689;BME280;70518;51.400;7.428;2024-03-02T11:55:39;159209.09;;;20.39;44.25
49689;BME280;70518;51.400;7.428;2024-03-02T11:58:06;159212.97;;;20.41;43.53
49689;BME280;70518;51.400;7.428;2024-03-02T12:00:31;159180.53;;;20.28;41.85
49689;BME280;70518;51.400;7.428;2024-03-02T12:05:27;159188.31;;;20.31;42.27
49689;BME280;70518;51.400;7.428;2024-03-02T12:07:56;159175.34;;;20.26;42.09
49689;BME280;70518;51.400;7.428;2024-03-02T12:10:22;159157.13;;;20.19;40.60
49689;BME280;70518;51.400;7.428;2024-03-02T12:12:47;159135.06;;;20.11;40.84
49689;BME280;70518;51.400;7.428;2024-03-02T12:15:13;159107.84;;;20.00;40.23
49689;BME280;70518;51.400;7.428;2024-03-02T12:17:38;159061.13;;;19.82;40.72
49689;BME280;70518;51.400;7.428;2024-03-02T12:20:04;159050.72;;;19.78;40.85
49689;BME280;70518;51.400;7.428;2024-03-02T12:22:29;159022.19;;;19.67;40.87
49689;BME280;70518;51.400;7.428;2024-03-02T12:24:55;159042.94;;;19.75;41.40
49689;BME280;70518;51.400;7.428;2024-03-02T12:27:20;159006.63;;;19.61;40.68
49689;BME280;70518;51.400;7.428;2024-03-02T12:29:46;159022.19;;;19.67;40.82
49689;BME280;70518;51.400;7.428;2024-03-02T12:32:11;159033.91;;;19.71;41.45
49689;BME280;70518;51.400;7.428;2024-03-02T12:34:37;159052.03;;;19.78;41.14
49689;BME280;70518;51.400;7.428;2024-03-02T12:37:03;159046.88;;;19.76;40.64
49689;BME280;70518;51.400;7.428;2024-03-02T12:39:28;159065.03;;;19.83;40.89
49689;BME280;70518;51.400;7.428;2024-03-02T12:41:55;159078.00;;;19.88;40.83
49689;BME280;70518;51.400;7.428;2024-03-02T12:44:20;159083.19;;;19.90;40.30
49689;BME280;70518;51.400;7.428;2024-03-02T12:46:46;159083.19;;;19.90;40.58
49689;BME280;70518;51.400;7.428;2024-03-02T12:49:12;159083.19;;;19.90;40.29
49689;BME280;70518;51.400;7.428;2024-03-02T12:51:39;159089.66;;;19.93;40.50
49689;BME280;70518;51.400;7.428;2024-03-02T12:54:05;159110.44;;;20.01;40.48